Time;durP1;ratioP1;P1;durP2;ratioP2;P2;SDS_P1;SDS_P2;PMS_P1;PMS_P2;Temp;Humidity;BMP_temperature;BMP_pressure;BME280_temperature;BME280_humidity;BME280_pressure;Samples;Min_cycle;Max_cycle;Signal;HPM_P1;HPM_P2
2021/12/21 00:06:34;;;;;;;0.20;0.10;;;7.40;99.90;;;;;;20664803;28;20271;-72
2021/12/21 00:27:39;;;;;;;1.13;0.80;;;6.50;99.90;;;;;;20598943;28;20614;-72
2021/12/21 00:37:43;;;;;;;0.20;0.20;;;6.90;99.90;;;;;;20586991;28;20632;-73
2021/12/21 01:09:11;;;;;;;0.20;0.10;;;6.70;99.90;;;;;;20836948;22;20214;-77
2021/12/21 01:19:20;;;;;;;0.20;0.10;;;6.90;99.90;;;;;;20691919;28;20619;-78
2021/12/21 01:29:34;;;;;;;0.20;0.20;;;6.90;99.90;;;;;;20695982;23;20237;-78
2021/12/21 01:50:00;;;;;;;0.20;0.10;;;6.80;99.90;;;;;;20684790;28;20207;-78
2021/12/21 02:00:06;;;;;;;0.20;0.10;;;7.10;99.90;;;;;;20701226;23;20237;-72
2021/12/21 02:10:12;;;;;;;0.20;0.10;;;7.20;99.90;;;;;;20901486;28;20204;-72
2021/12/21 02:20:23;;;;;;;0.20;0.10;;;7.20;99.90;;;;;;20919004;28;20228;-71
2021/12/21 02:30:28;;;;;;;0.20;0.00;;;7.10;99.90;;;;;;20918269;28;20272;-71
2021/12/21 02:40:33;;;;;;;0.20;0.10;;;7.10;99.90;;;;;;20915556;28;20221;-70
2021/12/21 02:50:38;;;;;;;0.20;0.10;;;7.10;99.90;;;;;;20916136;28;20228;-71
2021/12/21 03:00:43;;;;;;;0.20;0.10;;;7.00;99.90;;;;;;20915884;28;20229;-71
2021/12/21 03:11:01;;;;;;;0.20;0.00;;;6.80;99.90;;;;;;20914895;28;20182;-71
2021/12/21 03:21:07;;;;;;;0.20;0.10;;;7.00;99.90;;;;;;20896313;28;20220;-71
2021/12/21 03:31:11;;;;;;;0.20;0.10;;;7.20;99.90;;;;;;20913462;28;20540;-72
2021/12/21 03:41:18;;;;;;;0.20;0.17;;;7.20;99.90;;;;;;20894707;28;20229;-71
2021/12/21 03:51:23;;;;;;;0.20;0.10;;;7.20;99.90;;;;;;20863780;28;20515;-71
2021/12/21 04:01:28;;;;;;;0.30;0.30;;;6.90;99.90;;;;;;20809776;28;20240;-70
2021/12/21 04:11:32;;;;;;;0.20;0.10;;;6.70;99.90;;;;;;20827996;28;20237;-70
2021/12/21 04:21:37;;;;;;;0.20;0.10;;;6.70;99.90;;;;;;20827171;28;20218;-70
2021/12/21 04:31:41;;;;;;;0.20;0.10;;;6.60;99.90;;;;;;20827025;28;20321;-70
2021/12/21 04:41:47;;;;;;;0.30;0.30;;;6.50;99.90;;;;;;20826246;28;20292;-71
2021/12/21 04:52:06;;;;;;;0.20;0.10;;;6.60;99.90;;;;;;20809435;28;20667;-71
2021/12/21 05:02:11;;;;;;;0.20;0.20;;;6.60;99.90;;;;;;20847806;28;20233;-71
2021/12/21 05:12:16;;;;;;;0.20;0.10;;;6.60;99.90;;;;;;20889455;28;20668;-71
2021/12/21 05:22:21;;;;;;;0.20;0.10;;;6.60;99.90;;;;;;20889460;28;20225;-71
2021/12/21 05:32:25;;;;;;;0.70;0.70;;;6.60;99.90;;;;;;20924207;28;20193;-71
2021/12/21 05:42:30;;;;;;;0.20;0.10;;;6.50;99.90;;;;;;20904336;28;20275;-71
2021/12/21 05:52:35;;;;;;;0.20;0.10;;;6.60;99.90;;;;;;20865338;28;20265;-70
2021/12/21 06:02:41;;;;;;;0.20;0.10;;;6.60;99.90;;;;;;20837141;28;20668;-74
2021/12/21 06:13:12;;;;;;;0.20;0.10;;;6.60;99.90;;;;;;20869454;28;20189;-73
2021/12/21 06:33:47;;;;;;;0.90;0.80;;;6.60;99.90;;;;;;20881333;28;20662;-72
2021/12/21 06:43:53;;;;;;;0.20;0.10;;;6.90;99.90;;;;;;20915432;28;20621;-71
2021/12/21 06:53:58;;;;;;;0.20;0.10;;;7.20;99.90;;;;;;20913854;28;20251;-72
2021/12/21 07:04:05;;;;;;;0.20;0.10;;;7.30;99.90;;;;;;20910306;28;20233;-73
2021/12/21 07:24:32;;;;;;;0.20;0.10;;;7.30;99.90;;;;;;20910219;28;20278;-72
2021/12/21 07:34:37;;;;;;;0.20;0.10;;;7.20;99.90;;;;;;20909851;28;20201;-72
2021/12/21 07:44:42;;;;;;;0.20;0.10;;;7.50;99.90;;;;;;20908676;28;20553;-72
2021/12/21 07:54:46;;;;;;;0.20;0.10;;;7.60;99.90;;;;;;20906022;28;20247;-73
2021/12/21 08:04:53;;;;;;;0.20;0.10;;;7.90;99.90;;;;;;20905019;28;20237;-71
2021/12/21 08:14:56;;;;;;;0.20;0.10;;;8.20;99.90;;;;;;20905782;28;20181;-73
2021/12/21 08:25:01;;;;;;;0.20;0.10;;;8.70;99.90;;;;;;20887150;28;20247;-74
2021/12/21 08:35:08;;;;;;;0.20;0.10;;;9.10;99.90;;;;;;20907423;28;20224;-71
2021/12/21 08:45:16;;;;;;;0.20;0.10;;;9.50;99.90;;;;;;20887125;28;20221;-72
2021/12/21 08:55:20;;;;;;;0.20;0.10;;;9.60;99.90;;;;;;20887288;28;20201;-72
2021/12/21 09:15:58;;;;;;;0.20;0.10;;;10.60;99.90;;;;;;20920650;28;20201;-71
2021/12/21 09:26:15;;;;;;;0.20;0.10;;;10.80;99.90;;;;;;20861264;23;20242;-72
2021/12/21 09:36:58;;;;;;;0.20;0.10;;;11.10;99.90;;;;;;20811547;28;20198;-74
2021/12/21 09:47:06;;;;;;;0.20;0.10;;;11.40;99.90;;;;;;20718467;28;20691;-72
2021/12/21 09:57:16;;;;;;;0.20;0.10;;;12.80;99.90;;;;;;20782716;23;20286;-77
2021/12/21 10:07:22;;;;;;;0.20;0.00;;;13.60;99.90;;;;;;20859553;23;20241;-74
2021/12/21 10:17:26;;;;;;;0.20;0.10;;;14.20;99.90;;;;;;20818373;28;20273;-75
2021/12/21 10:27:51;;;;;;;0.20;0.07;;;14.00;99.90;;;;;;20829937;28;20305;-76
2021/12/21 10:37:55;;;;;;;0.20;0.20;;;14.20;99.90;;;;;;20830927;28;20186;-73
2021/12/21 10:48:20;;;;;;;0.20;0.10;;;14.70;99.90;;;;;;20944260;23;20266;-74
2021/12/21 10:58:29;;;;;;;0.87;0.87;;;15.50;99.90;;;;;;20981715;28;20272;-74
2021/12/21 11:08:40;;;;;;;0.20;0.10;;;16.20;99.90;;;;;;20981637;28;20722;-74
2021/12/21 11:18:44;;;;;;;0.20;0.00;;;16.10;99.90;;;;;;20980809;28;20685;-74
2021/12/21 11:28:50;;;;;;;0.20;0.10;;;16.50;99.90;;;;;;20979656;28;20230;-75
2021/12/21 11:38:54;;;;;;;0.20;0.07;;;16.50;99.90;;;;;;20980748;28;20296;-75
2021/12/21 11:49:07;;;;;;;0.20;0.10;;;16.80;99.90;;;;;;20977813;28;20239;-72
2021/12/21 11:59:11;;;;;;;0.20;0.10;;;16.90;99.90;;;;;;20958252;28;20719;-73
2021/12/21 12:09:29;;;;;;;0.20;0.00;;;17.00;99.90;;;;;;20976491;28;20569;-78
2021/12/21 12:19:43;;;;;;;0.20;0.10;;;17.10;99.90;;;;;;20975888;28;20200;-72
2021/12/21 12:29:53;;;;;;;0.20;0.00;;;17.60;99.90;;;;;;20974263;28;20216;-72
2021/12/21 12:40:05;;;;;;;0.20;0.10;;;17.50;99.90;;;;;;20975143;28;20212;-72
2021/12/21 12:50:19;;;;;;;0.30;0.20;;;16.80;99.90;;;;;;20974297;28;20220;-72
2021/12/21 13:00:26;;;;;;;0.20;0.07;;;16.20;99.90;;;;;;20957717;28;20333;-73
2021/12/21 13:10:32;;;;;;;0.20;0.10;;;16.00;99.90;;;;;;20956766;28;20228;-72
2021/12/21 13:20:38;;;;;;;0.20;0.10;;;15.50;99.90;;;;;;20976396;28;20232;-73
2021/12/21 13:30:49;;;;;;;0.50;0.50;;;15.30;99.90;;;;;;20968691;28;20201;-74
2021/12/21 13:41:01;;;;;;;0.20;0.17;;;15.70;99.90;;;;;;20969675;28;20238;-72
2021/12/21 13:51:16;;;;;;;0.20;0.10;;;15.60;99.90;;;;;;20991259;28;20216;-71
2021/12/21 14:01:27;;;;;;;5.90;5.60;;;14.90;99.90;;;;;;20996612;28;20230;-71
2021/12/21 14:11:34;;;;;;;0.20;0.10;;;15.30;99.90;;;;;;20996688;28;20249;-71
2021/12/21 14:21:41;;;;;;;0.20;0.00;;;15.80;99.90;;;;;;20995628;28;20248;-76
2021/12/21 14:31:52;;;;;;;0.20;0.10;;;15.40;99.90;;;;;;20995652;28;20232;-72
2021/12/21 14:41:58;;;;;;;0.20;0.10;;;14.80;99.90;;;;;;20983518;28;20232;-71
2021/12/21 14:52:22;;;;;;;0.20;0.00;;;14.20;99.90;;;;;;20977653;28;20212;-71
2021/12/21 15:02:49;;;;;;;0.20;0.10;;;14.10;99.90;;;;;;20729795;28;20234;-73
2021/12/21 15:12:52;;;;;;;0.20;0.10;;;13.80;99.90;;;;;;20735214;28;20536;-71
2021/12/21 15:22:56;;;;;;;0.20;0.10;;;13.60;99.90;;;;;;20852249;28;20314;-72
2021/12/21 15:33:02;;;;;;;0.20;0.00;;;13.50;99.90;;;;;;20977371;28;20284;-73
2021/12/21 15:43:07;;;;;;;0.20;0.10;;;13.10;99.90;;;;;;20975279;28;20246;-71
2021/12/21 15:53:12;;;;;;;0.20;0.10;;;13.00;99.90;;;;;;20973515;28;20844;-73
2021/12/21 16:03:17;;;;;;;0.20;0.00;;;12.80;99.90;;;;;;20974723;28;20731;-72
2021/12/21 16:13:22;;;;;;;0.20;0.10;;;12.70;99.90;;;;;;20951812;28;20203;-67
2021/12/21 16:23:26;;;;;;;0.20;0.10;;;12.80;99.90;;;;;;20970729;28;20273;-70
2021/12/21 16:33:31;;;;;;;0.20;0.10;;;12.70;99.90;;;;;;20972646;28;20220;-72
2021/12/21 16:43:37;;;;;;;0.20;0.10;;;12.70;99.90;;;;;;20971544;28;20236;-71
2021/12/21 16:53:42;;;;;;;0.20;0.10;;;12.50;99.90;;;;;;20975430;28;20247;-70
2021/12/21 17:03:46;;;;;;;0.20;0.10;;;12.60;99.90;;;;;;20973613;28;20720;-71
2021/12/21 17:13:53;;;;;;;0.20;0.10;;;12.40;99.90;;;;;;20975744;28;20684;-72
2021/12/21 17:23:57;;;;;;;0.30;0.30;;;12.20;99.90;;;;;;20980455;28;20348;-73
2021/12/21 17:34:06;;;;;;;0.20;0.10;;;12.10;99.90;;;;;;20996317;28;20676;-71
2021/12/21 17:44:09;;;;;;;0.20;0.10;;;11.40;99.90;;;;;;21027167;28;20718;-71
2021/12/21 17:54:15;;;;;;;1.20;1.10;;;10.90;99.90;;;;;;21033958;28;20535;-70
2021/12/21 18:04:20;;;;;;;0.20;0.10;;;10.80;99.90;;;;;;20979860;28;20477;-72
2021/12/21 18:14:26;;;;;;;1.50;1.50;;;10.60;99.90;;;;;;20999666;28;20270;-72
2021/12/21 18:24:29;;;;;;;0.20;0.00;;;10.30;99.90;;;;;;20997932;28;20247;-72
2021/12/21 18:34:35;;;;;;;0.20;0.10;;;10.40;99.90;;;;;;20998110;28;20232;-72
2021/12/21 18:44:41;;;;;;;0.20;0.10;;;10.30;99.90;;;;;;21030249;28;20238;-70
2021/12/21 18:54:46;;;;;;;3.87;3.67;;;10.10;99.90;;;;;;21063366;28;20219;-72
2021/12/21 19:04:51;;;;;;;1.33;1.33;;;9.90;99.90;;;;;;20988718;28;20328;-72
2021/12/21 19:15:00;;;;;;;0.20;0.00;;;9.90;99.90;;;;;;20994407;28;20673;-72
2021/12/21 19:25:04;;;;;;;0.30;0.23;;;9.90;99.90;;;;;;20993723;28;20231;-73
2021/12/21 19:35:15;;;;;;;1.47;1.40;;;9.90;99.90;;;;;;20991180;28;20231;-73
2021/12/21 19:45:19;;;;;;;0.20;0.00;;;10.00;99.90;;;;;;20992006;28;20267;-71
2021/12/21 19:55:25;;;;;;;3.17;3.07;;;10.10;99.90;;;;;;20937201;28;20225;-71
2021/12/21 20:05:30;;;;;;;0.20;0.10;;;10.20;99.90;;;;;;20945596;28;20220;-73
2021/12/21 20:15:37;;;;;;;0.20;0.10;;;10.00;99.90;;;;;;20987733;28;20195;-72
2021/12/21 20:25:42;;;;;;;0.20;0.10;;;10.10;99.90;;;;;;20987384;28;20583;-73
2021/12/21 20:35:49;;;;;;;0.20;0.00;;;10.10;99.90;;;;;;20949603;28;20197;-73
2021/12/21 20:45:53;;;;;;;0.20;0.10;;;10.20;99.90;;;;;;20886707;28;20582;-74
2021/12/21 20:55:59;;;;;;;0.20;0.10;;;10.20;99.90;;;;;;20908648;28;20941;-73
2021/12/21 21:06:05;;;;;;;0.20;0.10;;;10.00;99.90;;;;;;20902535;28;20241;-72
2021/12/21 21:16:10;;;;;;;0.20;0.00;;;10.10;99.90;;;;;;20981716;28;20623;-72
2021/12/21 21:26:14;;;;;;;0.20;0.10;;;10.00;99.90;;;;;;20992065;28;20220;-75
2021/12/21 21:36:19;;;;;;;1.13;1.13;;;9.80;99.90;;;;;;20966139;28;20600;-72
2021/12/21 21:46:23;;;;;;;0.60;0.60;;;9.60;99.90;;;;;;21000704;28;20225;-73
2021/12/21 21:56:28;;;;;;;0.20;0.00;;;9.50;99.90;;;;;;20999692;28;20200;-74
2021/12/21 22:06:33;;;;;;;0.20;0.00;;;9.40;99.90;;;;;;20979954;28;20228;-74
2021/12/21 22:16:38;;;;;;;0.20;0.10;;;9.60;99.90;;;;;;20998684;28;20624;-77
2021/12/21 22:26:41;;;;;;;0.20;0.00;;;9.90;99.90;;;;;;21001016;28;20226;-77
2021/12/21 22:37:07;;;;;;;0.20;0.10;;;10.00;99.90;;;;;;20953786;28;20197;-76
2021/12/21 22:47:10;;;;;;;0.20;0.00;;;10.20;99.90;;;;;;20917199;28;20303;-73
2021/12/21 22:57:15;;;;;;;0.20;0.07;;;10.20;99.90;;;;;;20915793;28;20200;-73
2021/12/21 23:07:19;;;;;;;0.20;0.00;;;10.30;99.90;;;;;;20914261;28;20214;-75
2021/12/21 23:17:24;;;;;;;0.20;0.10;;;10.30;99.90;;;;;;20985758;28;20278;-74
2021/12/21 23:27:27;;;;;;;0.20;0.10;;;10.50;99.90;;;;;;20993919;28;20585;-73
2021/12/21 23:37:32;;;;;;;0.20;0.10;;;10.50;99.90;;;;;;20993091;28;20618;-67
2021/12/21 23:47:36;;;;;;;0.20;0.10;;;10.50;99.90;;;;;;20994529;28;20243;-74
2021/12/21 23:57:42;;;;;;;0.20;0.00;;;10.30;99.90;;;;;;20994582;28;20196;-74
